sensor_id;sensor_type;location;lat;lon;timestamp;temperature;humidity
2893;DHT22;1456;51.840;12.184;2023-04-06T00:01:10;-0.30;99.90
2893;DHT22;1456;51.840;12.184;2023-04-06T00:03:36;-0.30;99.90
2893;DHT22;1456;51.840;12.184;2023-04-06T00:06:02;-0.30;99.90
2893;DHT22;1456;51.840;12.184;2023-04-06T00:08:28;-0.30;99.90
2893;DHT22;1456;51.840;12.184;2023-04-06T00:10:54;-0.40;99.90
2893;DHT22;1456;51.840;12.184;2023-04-06T00:13:20;-0.40;99.90
2893;DHT22;1456;51.840;12.184;2023-04-06T00:15:46;-0.40;99.90
2893;DHT22;1456;51.840;12.184;2023-04-06T00:18:11;-0.50;99.90
2893;DHT22;1456;51.840;12.184;2023-04-06T00:20:37;-0.50;99.90
2893;DHT22;1456;51.840;12.184;2023-04-06T00:23:03;-0.50;99.90
2893;DHT22;1456;51.840;12.184;2023-04-06T00:25:30;-0.50;99.90
2893;DHT22;1456;51.840;12.184;2023-04-06T00:27:56;-0.50;99.90
2893;DHT22;1456;51.840;12.184;2023-04-06T00:30:21;-0.50;99.90
2893;DHT22;1456;51.840;12.184;2023-04-06T00:32:47;-0.50;99.90
2893;DHT22;1456;51.840;12.184;2023-04-06T00:35:13;-0.50;99.90
2893;DHT22;1456;51.840;12.184;2023-04-06T00:37:40;-0.50;99.90
2893;DHT22;1456;51.840;12.184;2023-04-06T00:40:06;-0.50;99.90
2893;DHT22;1456;51.840;12.184;2023-04-06T00:42:32;-0.50;99.90
2893;DHT22;1456;51.840;12.184;2023-04-06T00:45:00;-0.60;99.90
2893;DHT22;1456;51.840;12.184;2023-04-06T00:47:26;-0.60;99.90
2893;DHT22;1456;51.840;12.184;2023-04-06T00:49:53;-0.60;99.90
2893;DHT22;1456;51.840;12.184;2023-04-06T00:52:19;-0.60;99.90
2893;DHT22;1456;51.840;12.184;2023-04-06T00:54:46;-0.60;99.90
2893;DHT22;1456;51.840;12.184;2023-04-06T00:57:12;-0.70;99.90
2893;DHT22;1456;51.840;12.184;2023-04-06T00:59:39;-0.70;99.90
2893;DHT22;1456;51.840;12.184;2023-04-06T01:02:06;-0.70;99.90
2893;DHT22;1456;51.840;12.184;2023-04-06T01:04:33;-0.70;99.90
2893;DHT22;1456;51.840;12.184;2023-04-06T01:06:59;-0.70;99.90
2893;DHT22;1456;51.840;12.184;2023-04-06T01:09:27;-0.80;99.90
2893;DHT22;1456;51.840;12.184;2023-04-06T01:11:52;-0.80;99.90
2893;DHT22;1456;51.840;12.184;2023-04-06T01:14:18;-0.80;99.90
2893;DHT22;1456;51.840;12.184;2023-04-06T01:16:44;-0.80;99.90
2893;DHT22;1456;51.840;12.184;2023-04-06T01:19:10;-0.80;99.90
2893;DHT22;1456;51.840;12.184;2023-04-06T01:21:38;-0.80;99.90
2893;DHT22;1456;51.840;12.184;2023-04-06T01:24:04;-0.90;99.90
2893;DHT22;1456;51.840;12.184;2023-04-06T01:26:31;-0.90;99.90
2893;DHT22;1456;51.840;12.184;2023-04-06T01:28:57;-0.90;99.90
2893;DHT22;1456;51.840;12.184;2023-04-06T01:31:24;-0.90;99.90
2893;DHT22;1456;51.840;12.184;2023-04-06T01:33:50;-0.90;99.90
2893;DHT22;1456;51.840;12.184;2023-04-06T01:36:16;-0.90;99.90
2893;DHT22;1456;51.840;12.184;2023-04-06T01:38:42;-0.90;99.90
2893;DHT22;1456;51.840;12.184;2023-04-06T01:41:08;-0.90;99.90
2893;DHT22;1456;51.840;12.184;2023-04-06T01:43:34;-1.00;99.90
2893;DHT22;1456;51.840;12.184;2023-04-06T01:46:00;-1.00;99.90
2893;DHT22;1456;51.840;12.184;2023-04-06T01:48:27;-1.00;99.90
2893;DHT22;1456;51.840;12.184;2023-04-06T01:50:53;-1.10;99.90
2893;DHT22;1456;51.840;12.184;2023-04-06T01:53:19;-1.10;99.90
2893;DHT22;1456;51.840;12.184;2023-04-06T01:55:45;-1.10;99.90
2893;DHT22;1456;51.840;12.184;2023-04-06T01:58:11;-1.20;99.90
2893;DHT22;1456;51.840;12.184;2023-04-06T02:00:37;-1.20;99.90
2893;DHT22;1456;51.840;12.184;2023-04-06T02:03:02;-1.20;99.90
2893;DHT22;1456;51.840;12.184;2023-04-06T02:05:30;-1.20;99.90
2893;DHT22;1456;51.840;12.184;2023-04-06T02:07:56;-1.20;99.90
2893;DHT22;1456;51.840;12.184;2023-04-06T02:10:22;-1.30;99.90
2893;DHT22;1456;51.840;12.184;2023-04-06T02:12:48;-1.30;99.90
2893;DHT22;1456;51.840;12.184;2023-04-06T02:15:15;-1.30;99.90
2893;DHT22;1456;51.840;12.184;2023-04-06T02:17:41;-1.30;99.90
2893;DHT22;1456;51.840;12.184;2023-04-06T02:20:07;-1.30;99.90
2893;DHT22;1456;51.840;12.184;2023-04-06T02:22:35;-1.30;99.90
2893;DHT22;1456;51.840;12.184;2023-04-06T02:25:00;-1.30;99.90
2893;DHT22;1456;51.840;12.184;2023-04-06T02:27:26;-1.30;99.90
2893;DHT22;1456;51.840;12.184;2023-04-06T02:29:52;-1.40;99.90
2893;DHT22;1456;51.840;12.184;2023-04-06T02:32:18;-1.30;99.90
2893;DHT22;1456;51.840;12.184;2023-04-06T02:34:44;-1.30;99.90
2893;DHT22;1456;51.840;12.184;2023-04-06T02:37:09;-1.30;99.90
2893;DHT22;1456;51.840;12.184;2023-04-06T02:39:35;-1.40;99.90
2893;DHT22;1456;51.840;12.184;2023-04-06T02:42:01;-1.40;99.90
2893;DHT22;1456;51.840;12.184;2023-04-06T02:44:26;-1.40;99.90
2893;DHT22;1456;51.840;12.184;2023-04-06T02:46:52;-1.40;99.90
2893;DHT22;1456;51.840;12.184;2023-04-06T02:49:18;-1.40;99.90
2893;DHT22;1456;51.840;12.184;2023-04-06T02:51:44;-1.40;99.90
2893;DHT22;1456;51.840;12.184;2023-04-06T02:54:09;-1.40;99.90
2893;DHT22;1456;51.840;12.184;2023-04-06T02:56:35;-1.40;99.90
2893;DHT22;1456;51.840;12.184;2023-04-06T02:59:01;-1.40;99.90
2893;DHT22;1456;51.840;12.184;2023-04-06T03:01:26;-1.50;99.90
2893;DHT22;1456;51.840;12.184;2023-04-06T03:03:52;-1.50;99.90
2893;DHT22;1456;51.840;12.184;2023-04-06T03:06:18;-1.50;99.90
2893;DHT22;1456;51.840;12.184;2023-04-06T03:08:43;-1.50;99.90
2893;DHT22;1456;51.840;12.184;2023-04-06T03:11:09;-1.50;99.90
2893;DHT22;1456;51.840;12.184;2023-04-06T03:13:36;-1.50;99.90
2893;DHT22;1456;51.840;12.184;2023-04-06T03:16:04;-1.50;99.90
2893;DHT22;1456;51.840;12.184;2023-04-06T03:18:31;-1.60;99.90
2893;DHT22;1456;51.840;12.184;2023-04-06T03:20:57;-1.60;99.90
2893;DHT22;1456;51.840;12.184;2023-04-06T03:23:22;-1.50;99.90
2893;DHT22;1456;51.840;12.184;2023-04-06T03:25:48;-1.50;99.90
2893;DHT22;1456;51.840;12.184;2023-04-06T03:28:14;-1.60;99.90
2893;DHT22;1456;51.840;12.184;2023-04-06T03:30:41;-1.60;99.90
2893;DHT22;1456;51.840;12.184;2023-04-06T03:33:07;-1.60;99.90
2893;DHT22;1456;51.840;12.184;2023-04-06T03:35:33;-1.60;99.90
2893;DHT22;1456;51.840;12.184;2023-04-06T03:37:58;-1.60;99.90
2893;DHT22;1456;51.840;12.184;2023-04-06T03:40:24;-1.60;99.90
2893;DHT22;1456;51.840;12.184;2023-04-06T03:42:50;-1.60;99.90
2893;DHT22;1456;51.840;12.184;2023-04-06T03:45:17;-1.60;99.90
2893;DHT22;1456;51.840;12.184;2023-04-06T03:47:42;-1.60;99.90
2893;DHT22;1456;51.840;12.184;2023-04-06T03:50:08;-1.60;99.90
2893;DHT22;1456;51.840;12.184;2023-04-06T03:52:35;-1.60;99.90
2893;DHT22;1456;51.840;12.184;2023-04-06T03:55:01;-1.60;99.90
2893;DHT22;1456;51.840;12.184;2023-04-06T03:57:27;-1.60;99.90
2893;DHT22;1456;51.840;12.184;2023-04-06T03:59:52;-1.70;99.90
2893;DHT22;1456;51.840;12.184;2023-04-06T04:02:18;-1.60;99.90
2893;DHT22;1456;51.840;12.184;2023-04-06T04:04:44;-1.60;99.90
2893;DHT22;1456;51.840;12.184;2023-04-06T04:07:09;-1.70;99.90
2893;DHT22;1456;51.840;12.184;2023-04-06T04:09:36;-1.70;99.90
2893;DHT22;1456;51.840;12.184;2023-04-06T04:12:02;-1.70;99.90
2893;DHT22;1456;51.840;12.184;2023-04-06T04:14:28;-1.70;99.90
2893;DHT22;1456;51.840;12.184;2023-04-06T04:16:54;-1.70;99.90
2893;DHT22;1456;51.840;12.184;2023-04-06T04:19:20;-1.60;99.90
2893;DHT22;1456;51.840;12.184;2023-04-06T04:21:46;-1.60;99.90
2893;DHT22;1456;51.840;12.184;2023-04-06T04:24:13;-1.60;99.90
2893;DHT22;1456;51.840;12.184;2023-04-06T04:26:39;-1.50;99.90
2893;DHT22;1456;51.840;12.184;2023-04-06T04:29:06;-1.50;99.90
2893;DHT22;1456;51.840;12.184;2023-04-06T04:31:32;-1.40;99.90
2893;DHT22;1456;51.840;12.184;2023-04-06T04:33:59;-1.40;99.90
2893;DHT22;1456;51.840;12.184;2023-04-06T04:36:25;-1.30;99.90
2893;DHT22;1456;51.840;12.184;2023-04-06T04:38:51;-1.20;99.90
2893;DHT22;1456;51.840;12.184;2023-04-06T04:41:17;-1.20;99.90
2893;DHT22;1456;51.840;12.184;2023-04-06T04:43:43;-1.20;99.90
2893;DHT22;1456;51.840;12.184;2023-04-06T04:46:10;-1.10;99.90
2893;DHT22;1456;51.840;12.184;2023-04-06T04:48:35;-1.10;99.90
2893;DHT22;1456;51.840;12.184;2023-04-06T04:51:01;-1.10;99.90
2893;DHT22;1456;51.840;12.184;2023-04-06T04:53:27;-1.10;99.90
2893;DHT22;1456;51.840;12.184;2023-04-06T04:55:52;-1.00;99.90
2893;DHT22;1456;51.840;12.184;2023-04-06T04:58:18;-1.00;99.90
2893;DHT22;1456;51.840;12.184;2023-04-06T05:00:45;-1.00;99.90
2893;DHT22;1456;51.840;12.184;2023-04-06T05:03:20;-1.00;99.90
2893;DHT22;1456;51.840;12.184;2023-04-06T05:05:46;-0.90;99.90
2893;DHT22;1456;51.840;12.184;2023-04-06T05:08:12;-0.90;99.90
2893;DHT22;1456;51.840;12.184;2023-04-06T05:10:38;-0.80;99.90
2893;DHT22;1456;51.840;12.184;2023-04-06T05:13:03;-0.80;99.90
2893;DHT22;1456;51.840;12.184;2023-04-06T05:15:29;-0.80;99.90
2893;DHT22;1456;51.840;12.184;2023-04-06T05:17:55;-0.70;99.90
2893;DHT22;1456;51.840;12.184;2023-04-06T05:20:21;-0.70;99.90
2893;DHT22;1456;51.840;12.184;2023-04-06T05:22:47;-0.60;99.90
2893;DHT22;1456;51.840;12.184;2023-04-06T05:25:13;-0.50;99.90
2893;DHT22;1456;51.840;12.184;2023-04-06T05:27:39;-0.50;99.90
2893;DHT22;1456;51.840;12.184;2023-04-06T05:30:06;-0.40;99.90
2893;DHT22;1456;51.840;12.184;2023-04-06T05:32:32;-0.30;99.90
2893;DHT22;1456;51.840;12.184;2023-04-06T05:34:58;-0.20;99.90
2893;DHT22;1456;51.840;12.184;2023-04-06T05:37:24;-0.10;99.90
2893;DHT22;1456;51.840;12.184;2023-04-06T05:39:49;0.00;99.90
2893;DHT22;1456;51.840;12.184;2023-04-06T05:42:15;0.10;99.90
2893;DHT22;1456;51.840;12.184;2023-04-06T05:44:42;0.20;99.90
2893;DHT22;1456;51.840;12.184;2023-04-06T05:47:07;0.30;99.90
2893;DHT22;1456;51.840;12.184;2023-04-06T05:49:33;0.40;99.90
2893;DHT22;1456;51.840;12.184;2023-04-06T05:52:00;0.50;99.90
2893;DHT22;1456;51.840;12.184;2023-04-06T05:54:26;0.70;99.90
2893;DHT22;1456;51.840;12.184;2023-04-06T05:56:51;0.80;99.90
2893;DHT22;1456;51.840;12.184;2023-04-06T05:59:17;1.00;99.90
2893;DHT22;1456;51.840;12.184;2023-04-06T06:01:42;1.10;99.90
2893;DHT22;1456;51.840;12.184;2023-04-06T06:04:08;1.20;99.90
2893;DHT22;1456;51.840;12.184;2023-04-06T06:06:34;1.40;99.90
2893;DHT22;1456;51.840;12.184;2023-04-06T06:09:00;1.50;99.90
2893;DHT22;1456;51.840;12.184;2023-04-06T06:11:26;1.50;99.90
2893;DHT22;1456;51.840;12.184;2023-04-06T06:13:52;1.80;99.90
2893;DHT22;1456;51.840;12.184;2023-04-06T06:16:19;2.00;99.90
2893;DHT22;1456;51.840;12.184;2023-04-06T06:18:45;2.10;99.90
2893;DHT22;1456;51.840;12.184;2023-04-06T06:21:11;2.30;99.90
2893;DHT22;1456;51.840;12.184;2023-04-06T06:23:38;2.50;99.90
2893;DHT22;1456;51.840;12.184;2023-04-06T06:26:04;2.60;99.90
2893;DHT22;1456;51.840;12.184;2023-04-06T06:28:30;2.80;99.90
2893;DHT22;1456;51.840;12.184;2023-04-06T06:30:56;3.00;99.90
2893;DHT22;1456;51.840;12.184;2023-04-06T06:33:21;3.20;99.90
2893;DHT22;1456;51.840;12.184;2023-04-06T06:35:47;3.30;99.90
2893;DHT22;1456;51.840;12.184;2023-04-06T06:38:13;3.40;99.90
2893;DHT22;1456;51.840;12.184;2023-04-06T06:40:40;3.40;99.90
2893;DHT22;1456;51.840;12.184;2023-04-06T06:43:05;3.60;99.90
2893;DHT22;1456;51.840;12.184;2023-04-06T06:45:31;3.80;99.90
2893;DHT22;1456;51.840;12.184;2023-04-06T06:47:58;3.90;99.90
2893;DHT22;1456;51.840;12.184;2023-04-06T06:50:24;4.00;99.90
2893;DHT22;1456;51.840;12.184;2023-04-06T06:52:50;4.10;99.90
2893;DHT22;1456;51.840;12.184;2023-04-06T06:55:15;4.30;99.90
2893;DHT22;1456;51.840;12.184;2023-04-06T06:57:41;4.40;99.90
2893;DHT22;1456;51.840;12.184;2023-04-06T07:00:09;4.50;99.90
2893;DHT22;1456;51.840;12.184;2023-04-06T07:02:35;4.60;99.90
2893;DHT22;1456;51.840;12.184;2023-04-06T07:05:02;4.70;99.90
2893;DHT22;1456;51.840;12.184;2023-04-06T07:07:29;4.80;99.90
2893;DHT22;1456;51.840;12.184;2023-04-06T07:09:54;5.00;99.90
2893;DHT22;1456;51.840;12.184;2023-04-06T07:12:20;5.10;99.90
2893;DHT22;1456;51.840;12.184;2023-04-06T07:14:46;5.30;99.90
2893;DHT22;1456;51.840;12.184;2023-04-06T07:17:12;5.30;99.90
2893;DHT22;1456;51.840;12.184;2023-04-06T07:19:37;5.50;99.90
2893;DHT22;1456;51.840;12.184;2023-04-06T07:22:03;5.60;99.90
2893;DHT22;1456;51.840;12.184;2023-04-06T07:24:30;5.80;99.80
2893;DHT22;1456;51.840;12.184;2023-04-06T07:26:55;5.90;99.60
2893;DHT22;1456;51.840;12.184;2023-04-06T07:29:22;6.00;99.20
2893;DHT22;1456;51.840;12.184;2023-04-06T07:31:48;6.10;98.70
2893;DHT22;1456;51.840;12.184;2023-04-06T07:34:15;6.20;99.00
2893;DHT22;1456;51.840;12.184;2023-04-06T07:36:41;6.40;98.60
2893;DHT22;1456;51.840;12.184;2023-04-06T07:39:07;6.60;98.60
2893;DHT22;1456;51.840;12.184;2023-04-06T07:41:33;6.70;98.30
2893;DHT22;1456;51.840;12.184;2023-04-06T07:43:58;6.90;97.80
2893;DHT22;1456;51.840;12.184;2023-04-06T07:46:24;7.00;97.30
2893;DHT22;1456;51.840;12.184;2023-04-06T07:48:50;7.20;97.90
2893;DHT22;1456;51.840;12.184;2023-04-06T07:51:16;7.30;96.60
2893;DHT22;1456;51.840;12.184;2023-04-06T07:53:44;7.40;96.40
2893;DHT22;1456;51.840;12.184;2023-04-06T07:56:11;7.50;96.50
2893;DHT22;1456;51.840;12.184;2023-04-06T07:58:38;7.70;96.30
2893;DHT22;1456;51.840;12.184;2023-04-06T08:01:04;7.80;96.40
2893;DHT22;1456;51.840;12.184;2023-04-06T08:03:30;7.80;94.90
2893;DHT22;1456;51.840;12.184;2023-04-06T08:05:55;7.90;95.20
2893;DHT22;1456;51.840;12.184;2023-04-06T08:08:21;8.10;95.50
2893;DHT22;1456;51.840;12.184;2023-04-06T08:10:48;8.10;94.50
2893;DHT22;1456;51.840;12.184;2023-04-06T08:13:14;8.10;92.90
2893;DHT22;1456;51.840;12.184;2023-04-06T08:15:41;8.20;93.60
2893;DHT22;1456;51.840;12.184;2023-04-06T08:18:07;8.50;94.50
2893;DHT22;1456;51.840;12.184;2023-04-06T08:20:35;8.80;94.30
2893;DHT22;1456;51.840;12.184;2023-04-06T08:23:00;9.00;93.30
2893;DHT22;1456;51.840;12.184;2023-04-06T08:25:26;9.30;93.60
2893;DHT22;1456;51.840;12.184;2023-04-06T08:27:52;9.50;93.60
2893;DHT22;1456;51.840;12.184;2023-04-06T08:30:18;9.60;91.80
2893;DHT22;1456;51.840;12.184;2023-04-06T08:32:45;9.80;92.50
2893;DHT22;1456;51.840;12.184;2023-04-06T08:35:11;10.00;92.10
2893;DHT22;1456;51.840;12.184;2023-04-06T08:37:37;10.00;90.50
2893;DHT22;1456;51.840;12.184;2023-04-06T08:40:03;10.10;91.90
2893;DHT22;1456;51.840;12.184;2023-04-06T08:42:32;10.20;90.60
2893;DHT22;1456;51.840;12.184;2023-04-06T08:44:58;10.30;88.60
2893;DHT22;1456;51.840;12.184;2023-04-06T08:47:25;10.40;90.50
2893;DHT22;1456;51.840;12.184;2023-04-06T08:49:51;10.60;89.70
2893;DHT22;1456;51.840;12.184;2023-04-06T08:52:18;10.80;89.50
2893;DHT22;1456;51.840;12.184;2023-04-06T08:54:44;10.90;89.50
2893;DHT22;1456;51.840;12.184;2023-04-06T08:57:10;11.10;88.60
2893;DHT22;1456;51.840;12.184;2023-04-06T08:59:37;11.30;87.80
2893;DHT22;1456;51.840;12.184;2023-04-06T09:02:04;11.50;88.00
2893;DHT22;1456;51.840;12.184;2023-04-06T09:04:33;11.60;88.20
2893;DHT22;1456;51.840;12.184;2023-04-06T09:07:00;11.70;85.20
2893;DHT22;1456;51.840;12.184;2023-04-06T09:09:26;11.70;81.50
2893;DHT22;1456;51.840;12.184;2023-04-06T09:11:52;11.80;85.40
2893;DHT22;1456;51.840;12.184;2023-04-06T09:14:34;11.80;82.10
2893;DHT22;1456;51.840;12.184;2023-04-06T09:17:00;11.90;81.10
2893;DHT22;1456;51.840;12.184;2023-04-06T09:19:26;12.00;82.50
2893;DHT22;1456;51.840;12.184;2023-04-06T09:22:04;12.10;82.00
2893;DHT22;1456;51.840;12.184;2023-04-06T09:27:11;12.30;78.20
2893;DHT22;1456;51.840;12.184;2023-04-06T09:29:36;12.30;83.80
2893;DHT22;1456;51.840;12.184;2023-04-06T09:32:06;12.30;76.20
2893;DHT22;1456;51.840;12.184;2023-04-06T09:34:33;12.00;78.00
2893;DHT22;1456;51.840;12.184;2023-04-06T09:37:00;12.00;77.30
2893;DHT22;1456;51.840;12.184;2023-04-06T09:39:26;12.20;81.30
2893;DHT22;1456;51.840;12.184;2023-04-06T09:41:53;12.30;80.30
2893;DHT22;1456;51.840;12.184;2023-04-06T09:44:20;12.40;78.60
2893;DHT22;1456;51.840;12.184;2023-04-06T09:46:46;12.50;75.50
2893;DHT22;1456;51.840;12.184;2023-04-06T09:49:13;12.50;75.70
2893;DHT22;1456;51.840;12.184;2023-04-06T09:51:46;12.70;77.80
2893;DHT22;1456;51.840;12.184;2023-04-06T09:54:21;12.90;76.90
2893;DHT22;1456;51.840;12.184;2023-04-06T10:02:05;13.90;77.60
2893;DHT22;1456;51.840;12.184;2023-04-06T10:04:43;14.20;74.90
2893;DHT22;1456;51.840;12.184;2023-04-06T10:07:13;14.40;70.00
2893;DHT22;1456;51.840;12.184;2023-04-06T10:09:44;14.40;60.20
2893;DHT22;1456;51.840;12.184;2023-04-06T10:12:11;14.50;63.80
2893;DHT22;1456;51.840;12.184;2023-04-06T10:14:38;15.00;64.70
2893;DHT22;1456;51.840;12.184;2023-04-06T10:17:05;15.20;61.90
2893;DHT22;1456;51.840;12.184;2023-04-06T10:19:46;15.40;62.80
2893;DHT22;1456;51.840;12.184;2023-04-06T10:22:24;15.30;57.80
2893;DHT22;1456;51.840;12.184;2023-04-06T10:24:51;15.70;66.20
2893;DHT22;1456;51.840;12.184;2023-04-06T10:27:27;16.50;63.30
2893;DHT22;1456;51.840;12.184;2023-04-06T10:29:53;17.20;58.90
2893;DHT22;1456;51.840;12.184;2023-04-06T10:32:18;17.90;62.50
2893;DHT22;1456;51.840;12.184;2023-04-06T10:34:44;18.30;52.70
2893;DHT22;1456;51.840;12.184;2023-04-06T10:37:14;18.30;51.10
2893;DHT22;1456;51.840;12.184;2023-04-06T10:40:06;18.40;51.70
2893;DHT22;1456;51.840;12.184;2023-04-06T10:42:38;18.00;51.70
2893;DHT22;1456;51.840;12.184;2023-04-06T10:45:22;18.00;48.90
2893;DHT22;1456;51.840;12.184;2023-04-06T10:47:49;18.70;51.00
2893;DHT22;1456;51.840;12.184;2023-04-06T10:50:15;19.70;53.50
2893;DHT22;1456;51.840;12.184;2023-04-06T10:52:45;20.30;50.00
2893;DHT22;1456;51.840;12.184;2023-04-06T10:55:13;20.70;50.40
2893;DHT22;1456;51.840;12.184;2023-04-06T10:57:39;20.90;44.10
2893;DHT22;1456;51.840;12.184;2023-04-06T11:00:06;21.30;49.40
2893;DHT22;1456;51.840;12.184;2023-04-06T11:02:32;21.90;44.80
2893;DHT22;1456;51.840;12.184;2023-04-06T11:04:58;22.70;46.90
2893;DHT22;1456;51.840;12.184;2023-04-06T11:07:28;23.00;44.50
2893;DHT22;1456;51.840;12.184;2023-04-06T11:09:56;22.80;41.10
2893;DHT22;1456;51.840;12.184;2023-04-06T11:12:28;22.30;39.70
2893;DHT22;1456;51.840;12.184;2023-04-06T11:14:59;21.30;40.00
2893;DHT22;1456;51.840;12.184;2023-04-06T11:17:35;20.70;38.00
2893;DHT22;1456;51.840;12.184;2023-04-06T11:20:04;20.20;39.00
2893;DHT22;1456;51.840;12.184;2023-04-06T11:22:31;19.90;39.80
2893;DHT22;1456;51.840;12.184;2023-04-06T11:25:07;19.90;40.90
2893;DHT22;1456;51.840;12.184;2023-04-06T11:27:36;19.70;40.00
2893;DHT22;1456;51.840;12.184;2023-04-06T11:30:03;20.40;39.00
2893;DHT22;1456;51.840;12.184;2023-04-06T11:32:28;21.10;41.50
2893;DHT22;1456;51.840;12.184;2023-04-06T11:34:57;21.70;38.30
2893;DHT22;1456;51.840;12.184;2023-04-06T11:37:26;21.40;39.10
2893;DHT22;1456;51.840;12.184;2023-04-06T11:39:54;21.80;41.20
2893;DHT22;1456;51.840;12.184;2023-04-06T11:42:24;22.70;40.90
2893;DHT22;1456;51.840;12.184;2023-04-06T11:44:53;23.30;36.90
2893;DHT22;1456;51.840;12.184;2023-04-06T11:47:19;22.60;38.40
2893;DHT22;1456;51.840;12.184;2023-04-06T11:49:45;22.60;39.10
2893;DHT22;1456;51.840;12.184;2023-04-06T11:52:19;22.80;38.50
2893;DHT22;1456;51.840;12.184;2023-04-06T11:54:48;23.10;38.70
2893;DHT22;1456;51.840;12.184;2023-04-06T11:57:14;23.80;37.40
2893;DHT22;1456;51.840;12.184;2023-04-06T11:59:40;23.70;38.30
2893;DHT22;1456;51.840;12.184;2023-04-06T12:02:06;23.70;37.60
2893;DHT22;1456;51.840;12.184;2023-04-06T12:04:32;23.20;37.50
2893;DHT22;1456;51.840;12.184;2023-04-06T12:06:58;22.90;38.40
2893;DHT22;1456;51.840;12.184;2023-04-06T12:09:24;22.50;36.50
2893;DHT22;1456;51.840;12.184;2023-04-06T12:11:50;20.40;37.80
2893;DHT22;1456;51.840;12.184;2023-04-06T12:14:16;20.20;39.00
2893;DHT22;1456;51.840;12.184;2023-04-06T12:16:41;20.90;38.60
2893;DHT22;1456;51.840;12.184;2023-04-06T12:19:07;22.30;41.00
2893;DHT22;1456;51.840;12.184;2023-04-06T12:21:34;23.40;39.10
2893;DHT22;1456;51.840;12.184;2023-04-06T12:24:02;23.90;36.90
2893;DHT22;1456;51.840;12.184;2023-04-06T12:26:29;23.90;35.00
2893;DHT22;1456;51.840;12.184;2023-04-06T12:28:55;24.40;36.80
2893;DHT22;1456;51.840;12.184;2023-04-06T12:31:22;23.30;36.90
2893;DHT22;1456;51.840;12.184;2023-04-06T12:33:49;23.20;39.10
2893;DHT22;1456;51.840;12.184;2023-04-06T12:36:19;24.20;37.50
2893;DHT22;1456;51.840;12.184;2023-04-06T12:38:47;25.90;39.80
2893;DHT22;1456;51.840;12.184;2023-04-06T12:41:13;27.40;36.70
2893;DHT22;1456;51.840;12.184;2023-04-06T12:43:41;27.80;37.10
2893;DHT22;1456;51.840;12.184;2023-04-06T12:46:08;28.20;34.00
2893;DHT22;1456;51.840;12.184;2023-04-06T12:48:34;28.30;33.50
2893;DHT22;1456;51.840;12.184;2023-04-06T12:51:02;28.30;32.60
2893;DHT22;1456;51.840;12.184;2023-04-06T12:53:29;28.40;31.70
2893;DHT22;1456;51.840;12.184;2023-04-06T12:55:55;28.00;33.80
2893;DHT22;1456;51.840;12.184;2023-04-06T12:58:23;28.50;32.30
2893;DHT22;1456;51.840;12.184;2023-04-06T13:00:51;29.00;33.40
2893;DHT22;1456;51.840;12.184;2023-04-06T13:03:19;29.40;32.40
2893;DHT22;1456;51.840;12.184;2023-04-06T13:05:54;30.00;35.70
2893;DHT22;1456;51.840;12.184;2023-04-06T13:08:21;31.10;37.40
2893;DHT22;1456;51.840;12.184;2023-04-06T13:10:47;31.10;29.10
2893;DHT22;1456;51.840;12.184;2023-04-06T13:13:17;30.20;31.10
2893;DHT22;1456;51.840;12.184;2023-04-06T13:15:44;30.00;31.20
2893;DHT22;1456;51.840;12.184;2023-04-06T13:18:10;30.20;30.30
2893;DHT22;1456;51.840;12.184;2023-04-06T13:20:36;30.00;29.70
2893;DHT22;1456;51.840;12.184;2023-04-06T13:23:03;29.60;29.60
2893;DHT22;1456;51.840;12.184;2023-04-06T13:25:29;29.00;29.00
2893;DHT22;1456;51.840;12.184;2023-04-06T13:27:55;29.40;30.80
2893;DHT22;1456;51.840;12.184;2023-04-06T13:30:21;30.00;30.40
2893;DHT22;1456;51.840;12.184;2023-04-06T13:32:47;30.80;29.00
2893;DHT22;1456;51.840;12.184;2023-04-06T13:35:12;31.60;28.80
2893;DHT22;1456;51.840;12.184;2023-04-06T13:37:38;29.60;29.30
2893;DHT22;1456;51.840;12.184;2023-04-06T13:40:05;28.80;28.10
2893;DHT22;1456;51.840;12.184;2023-04-06T13:42:31;29.20;29.10
2893;DHT22;1456;51.840;12.184;2023-04-06T13:44:57;30.50;30.00
2893;DHT22;1456;51.840;12.184;2023-04-06T13:47:23;30.80;28.50
2893;DHT22;1456;51.840;12.184;2023-04-06T13:49:52;31.00;28.30
2893;DHT22;1456;51.840;12.184;2023-04-06T13:52:18;31.50;28.90
2893;DHT22;1456;51.840;12.184;2023-04-06T13:54:44;32.40;29.40
2893;DHT22;1456;51.840;12.184;2023-04-06T13:57:10;33.10;28.40
2893;DHT22;1456;51.840;12.184;2023-04-06T13:59:38;33.60;29.50
2893;DHT22;1456;51.840;12.184;2023-04-06T14:02:06;33.50;27.80
2893;DHT22;1456;51.840;12.184;2023-04-06T14:04:32;32.50;26.60
2893;DHT22;1456;51.840;12.184;2023-04-06T14:06:58;31.50;26.20
2893;DHT22;1456;51.840;12.184;2023-04-06T14:09:24;31.10;25.80
2893;DHT22;1456;51.840;12.184;2023-04-06T14:11:50;30.60;25.90
2893;DHT22;1456;51.840;12.184;2023-04-06T14:14:16;29.80;26.60
2893;DHT22;1456;51.840;12.184;2023-04-06T14:16:42;29.80;27.00
2893;DHT22;1456;51.840;12.184;2023-04-06T14:19:10;30.10;27.80
2893;DHT22;1456;51.840;12.184;2023-04-06T14:21:38;31.10;27.30
2893;DHT22;1456;51.840;12.184;2023-04-06T14:24:07;32.10;26.40
2893;DHT22;1456;51.840;12.184;2023-04-06T14:26:34;32.30;27.60
2893;DHT22;1456;51.840;12.184;2023-04-06T14:29:00;31.50;27.70
2893;DHT22;1456;51.840;12.184;2023-04-06T14:31:26;31.70;27.40
2893;DHT22;1456;51.840;12.184;2023-04-06T14:33:52;31.70;27.90
2893;DHT22;1456;51.840;12.184;2023-04-06T14:36:18;30.90;25.60
2893;DHT22;1456;51.840;12.184;2023-04-06T14:38:44;30.80;27.90
2893;DHT22;1456;51.840;12.184;2023-04-06T14:41:19;31.70;28.10
2893;DHT22;1456;51.840;12.184;2023-04-06T14:43:46;32.50;26.30
2893;DHT22;1456;51.840;12.184;2023-04-06T14:46:11;32.60;26.30
2893;DHT22;1456;51.840;12.184;2023-04-06T14:48:37;32.40;25.40
2893;DHT22;1456;51.840;12.184;2023-04-06T14:51:03;31.50;26.20
2893;DHT22;1456;51.840;12.184;2023-04-06T14:53:29;31.20;25.50
2893;DHT22;1456;51.840;12.184;2023-04-06T14:55:55;31.60;26.90
2893;DHT22;1456;51.840;12.184;2023-04-06T14:58:22;32.20;25.90
2893;DHT22;1456;51.840;12.184;2023-04-06T15:00:49;32.10;25.00
2893;DHT22;1456;51.840;12.184;2023-04-06T15:03:21;31.20;26.10
2893;DHT22;1456;51.840;12.184;2023-04-06T15:05:55;29.20;26.70
2893;DHT22;1456;51.840;12.184;2023-04-06T15:08:29;28.10;26.80
2893;DHT22;1456;51.840;12.184;2023-04-06T15:10:59;27.40;27.10
2893;DHT22;1456;51.840;12.184;2023-04-06T15:13:25;26.80;25.90
2893;DHT22;1456;51.840;12.184;2023-04-06T15:15:55;26.10;26.90
2893;DHT22;1456;51.840;12.184;2023-04-06T15:18:29;26.70;27.30
2893;DHT22;1456;51.840;12.184;2023-04-06T15:20:54;27.00;27.00
2893;DHT22;1456;51.840;12.184;2023-04-06T15:23:25;26.10;26.40
2893;DHT22;1456;51.840;12.184;2023-04-06T15:25:55;24.90;26.80
2893;DHT22;1456;51.840;12.184;2023-04-06T15:28:21;23.80;27.70
2893;DHT22;1456;51.840;12.184;2023-04-06T15:30:47;23.30;27.80
2893;DHT22;1456;51.840;12.184;2023-04-06T15:33:13;22.70;26.80
2893;DHT22;1456;51.840;12.184;2023-04-06T15:35:39;22.30;28.00
2893;DHT22;1456;51.840;12.184;2023-04-06T15:38:07;21.70;27.30
2893;DHT22;1456;51.840;12.184;2023-04-06T15:40:33;21.20;28.50
2893;DHT22;1456;51.840;12.184;2023-04-06T15:42:59;20.70;29.90
2893;DHT22;1456;51.840;12.184;2023-04-06T15:45:26;20.30;30.00
2893;DHT22;1456;51.840;12.184;2023-04-06T15:47:52;20.70;29.30
2893;DHT22;1456;51.840;12.184;2023-04-06T15:50:17;21.30;29.90
2893;DHT22;1456;51.840;12.184;2023-04-06T15:52:44;21.20;27.80
2893;DHT22;1456;51.840;12.184;2023-04-06T15:55:09;21.30;29.80